TimeCST,TemperatureF,Dew PointF,Humidity,Sea Level PressureIn,VisibilityMPH,Wind Direction,Wind SpeedMPH,Gust SpeedMPH,PrecipitationIn,Events,Conditions,WindDirDegrees,DateUTC
12:15 AM,42.8,26.6,53,30.32,10.0,SE,8.1,-,N/A,,Clear,130,2012-11-18 06:15:00
12:35 AM,42.8,26.6,53,30.32,10.0,SE,8.1,-,N/A,,Clear,130,2012-11-18 06:35:00
12:55 AM,42.8,26.6,53,30.32,10.0,SE,6.9,-,N/A,,Clear,140,2012-11-18 06:55:00
1:15 AM,42.8,26.6,53,30.32,10.0,SE,8.1,-,N/A,,Clear,130,2012-11-18 07:15:00
1:35 AM,42.8,26.6,53,30.32,10.0,SE,6.9,-,N/A,,Clear,140,2012-11-18 07:35:00
2:15 AM,39.2,26.6,61,30.31,10.0,SE,5.8,-,N/A,,Clear,130,2012-11-18 08:15:00
2:35 AM,39.2,26.6,61,30.31,10.0,SE,5.8,-,N/A,,Clear,130,2012-11-18 08:35:00
2:55 AM,41.0,26.6,57,30.31,10.0,SE,5.8,-,N/A,,Clear,130,2012-11-18 08:55:00
3:15 AM,41.0,26.6,57,30.31,10.0,SE,5.8,-,N/A,,Clear,130,2012-11-18 09:15:00
3:35 AM,41.0,26.6,57,30.30,10.0,SE,5.8,-,N/A,,Clear,130,2012-11-18 09:35:00
4:16 AM,41.0,24.8,53,30.29,10.0,SE,8.1,-,N/A,,Clear,130,2012-11-18 10:16:00
4:35 AM,41.0,24.8,53,30.29,10.0,SE,4.6,-,N/A,,Clear,130,2012-11-18 10:35:00
4:55 AM,39.2,24.8,56,30.29,10.0,SE,4.6,-,N/A,,Clear,130,2012-11-18 10:55:00
5:35 AM,39.2,24.8,56,30.29,10.0,SE,6.9,-,N/A,,Clear,130,2012-11-18 11:35:00
5:55 AM,39.2,24.8,56,30.29,10.0,ESE,3.5,-,N/A,,Clear,120,2012-11-18 11:55:00
6:15 AM,39.2,24.8,56,30.29,10.0,SE,4.6,-,N/A,,Clear,130,2012-11-18 12:15:00
6:35 AM,39.2,26.6,61,30.29,10.0,SE,4.6,-,N/A,,Clear,130,2012-11-18 12:35:00
7:15 AM,39.2,26.6,61,30.29,10.0,SE,3.5,-,N/A,,Clear,140,2012-11-18 13:15:00
7:55 AM,41.0,28.4,61,30.30,10.0,SE,4.6,-,N/A,,Clear,140,2012-11-18 13:55:00
8:15 AM,44.6,30.2,57,30.30,10.0,SSE,3.5,-,N/A,,Clear,150,2012-11-18 14:15:00
8:35 AM,44.6,30.2,57,30.31,10.0,SE,4.6,-,N/A,,Clear,140,2012-11-18 14:35:00
9:15 AM,48.2,30.2,50,30.32,10.0,SSE,3.5,-,N/A,,Clear,150,2012-11-18 15:15:00
9:35 AM,51.8,28.4,41,30.32,10.0,SSE,6.9,-,N/A,,Clear,160,2012-11-18 15:35:00
9:55 AM,53.6,30.2,41,30.32,10.0,South,5.8,-,N/A,,Clear,170,2012-11-18 15:55:00
10:16 AM,55.4,26.6,33,30.32,10.0,SSE,8.1,-,N/A,,Clear,160,2012-11-18 16:16:00
10:35 AM,57.2,28.4,33,30.32,10.0,South,6.9,-,N/A,,Clear,190,2012-11-18 16:35:00
10:55 AM,60.8,28.4,29,30.32,10.0,South,9.2,-,N/A,,Clear,190,2012-11-18 16:55:00
11:15 AM,60.8,28.4,29,30.31,10.0,South,9.2,-,N/A,,Clear,190,2012-11-18 17:15:00
11:35 AM,62.6,28.4,27,30.29,10.0,South,8.1,-,N/A,,Clear,190,2012-11-18 17:35:00
11:55 AM,62.6,26.6,26,30.28,10.0,North,-9999.0,-,N/A,,Clear,0,2012-11-18 17:55:00
12:15 PM,62.6,28.4,27,30.27,10.0,SSW,11.5,-,N/A,,Clear,200,2012-11-18 18:15:00
12:35 PM,64.4,26.6,24,30.27,10.0,South,9.2,-,N/A,,Clear,190,2012-11-18 18:35:00
12:55 PM,64.4,28.4,26,30.26,10.0,SSW,11.5,-,N/A,,Clear,210,2012-11-18 18:55:00
1:16 PM,66.2,28.4,24,30.25,10.0,SW,10.4,16.1,N/A,,Clear,220,2012-11-18 19:16:00
1:35 PM,64.4,28.4,26,30.24,10.0,SSW,10.4,-,N/A,,Clear,210,2012-11-18 19:35:00
2:35 PM,62.6,26.6,26,30.22,10.0,South,8.1,-,N/A,,Clear,180,2012-11-18 20:35:00
2:55 PM,64.4,30.2,28,30.21,10.0,South,8.1,-,N/A,,Clear,170,2012-11-18 20:55:00
3:35 PM,64.4,28.4,26,30.21,10.0,South,6.9,-,N/A,,Clear,170,2012-11-18 21:35:00
3:55 PM,62.6,26.6,26,30.21,10.0,South,6.9,-,N/A,,Clear,180,2012-11-18 21:55:00
4:35 PM,62.6,26.6,26,30.21,10.0,South,6.9,-,N/A,,Clear,180,2012-11-18 22:35:00
4:55 PM,59.0,26.6,29,30.21,10.0,South,6.9,-,N/A,,Clear,170,2012-11-18 22:55:00
5:16 PM,57.2,26.6,31,30.21,10.0,South,5.8,-,N/A,,Clear,170,2012-11-18 23:16:00
5:35 PM,53.6,26.6,35,30.20,10.0,SSE,8.1,-,N/A,,Clear,150,2012-11-18 23:35:00
5:55 PM,53.6,26.6,35,30.21,10.0,SSE,6.9,-,N/A,,Clear,150,2012-11-18 23:55:00
6:35 PM,55.4,28.4,36,30.22,10.0,SSE,8.1,-,N/A,,Clear,150,2012-11-19 00:35:00
6:55 PM,55.4,28.4,36,30.22,10.0,SSE,6.9,-,N/A,,Partly Cloudy,150,2012-11-19 00:55:00
7:35 PM,55.4,30.2,38,30.22,10.0,SSE,10.4,-,N/A,,Partly Cloudy,160,2012-11-19 01:35:00
8:15 PM,53.6,30.2,41,30.23,10.0,SSE,5.8,-,N/A,,Mostly Cloudy,150,2012-11-19 02:15:00
8:36 PM,53.6,32.0,44,30.23,10.0,SSE,6.9,-,N/A,,Mostly Cloudy,150,2012-11-19 02:36:00
8:55 PM,53.6,32.0,44,30.23,10.0,SE,4.6,-,N/A,,Mostly Cloudy,140,2012-11-19 02:55:00
9:15 PM,53.6,33.8,47,30.23,10.0,SSE,6.9,-,N/A,,Scattered Clouds,150,2012-11-19 03:15:00
9:55 PM,53.6,33.8,47,30.22,10.0,SSE,6.9,-,N/A,,Clear,160,2012-11-19 03:55:00
11:15 PM,51.8,33.8,50,30.22,10.0,South,5.8,-,N/A,,Clear,170,2012-11-19 05:15:00
11:35 PM,51.8,33.8,50,30.22,10.0,South,4.6,-,N/A,,Clear,180,2012-11-19 05:35:00
11:55 PM,51.8,33.8,50,30.22,10.0,South,5.8,-,N/A,,Clear,180,2012-11-19 05:55:00